createdAt,value
2022-11-02T00:01:33.919Z,3.30
2022-11-02T00:04:00.555Z,3.43
2022-11-02T00:06:27.111Z,2.90
2022-11-02T00:08:53.689Z,2.70
2022-11-02T00:11:20.311Z,3.20
2022-11-02T00:13:46.873Z,3.00
2022-11-02T00:16:18.151Z,3.40
2022-11-02T00:18:47.667Z,2.57
2022-11-02T00:21:17.126Z,2.47
2022-11-02T00:23:44.311Z,2.63
2022-11-02T00:26:11.258Z,2.90
2022-11-02T00:28:39.224Z,2.80
2022-11-02T00:31:05.840Z,2.70
2022-11-02T00:33:32.472Z,2.97
2022-11-02T00:35:59.128Z,3.00
2022-11-02T00:38:25.769Z,2.93
2022-11-02T00:40:52.348Z,3.00
2022-11-02T00:43:19.033Z,2.77
2022-11-02T00:45:45.724Z,3.10
2022-11-02T00:48:12.317Z,2.50
2022-11-02T00:50:39.154Z,2.70
2022-11-02T00:53:06.471Z,2.97
2022-11-02T00:55:33.660Z,2.50
2022-11-02T00:58:03.752Z,2.60
2022-11-02T01:00:30.782Z,2.80
2022-11-02T01:03:01.457Z,2.60
2022-11-02T01:05:28.987Z,2.43
2022-11-02T01:07:56.913Z,2.63
2022-11-02T01:10:23.810Z,2.73
2022-11-02T01:12:50.647Z,2.37
2022-11-02T01:15:17.330Z,3.20
2022-11-02T01:17:44.362Z,2.57
2022-11-02T01:20:11.267Z,2.67
2022-11-02T01:22:37.958Z,2.40
2022-11-02T01:25:05.533Z,2.60
2022-11-02T01:27:32.221Z,3.17
2022-11-02T01:29:58.827Z,2.77
2022-11-02T01:32:25.507Z,3.10
2022-11-02T01:34:52.209Z,2.93
2022-11-02T01:37:18.792Z,2.90
2022-11-02T01:39:45.431Z,3.03
2022-11-02T01:42:20.848Z,3.40
2022-11-02T01:44:47.895Z,3.97
2022-11-02T01:47:23.873Z,3.90
2022-11-02T01:49:55.872Z,3.30
2022-11-02T01:52:33.003Z,3.77
2022-11-02T01:55:06.528Z,3.60
2022-11-02T01:57:35.297Z,3.50
2022-11-02T02:00:12.303Z,3.23
2022-11-02T02:02:56.688Z,3.53
2022-11-02T02:05:25.576Z,3.13
2022-11-02T02:07:53.076Z,3.13
2022-11-02T02:10:20.251Z,3.27
2022-11-02T02:12:47.703Z,2.90
2022-11-02T02:15:19.969Z,2.87
2022-11-02T02:18:01.032Z,2.70
2022-11-02T02:20:46.478Z,2.90
2022-11-02T02:23:26.783Z,2.73
2022-11-02T02:26:27.346Z,3.00
2022-11-02T02:29:01.260Z,3.13
2022-11-02T02:31:42.350Z,3.30
2022-11-02T02:34:24.535Z,3.00
2022-11-02T02:37:17.575Z,2.60
2022-11-02T02:39:51.265Z,2.60
2022-11-02T02:42:30.027Z,2.60
2022-11-02T02:45:08.477Z,3.13
2022-11-02T02:47:38.442Z,2.97
2022-11-02T02:50:19.703Z,2.87
2022-11-02T02:52:49.579Z,3.37
2022-11-02T02:55:22.377Z,2.83
2022-11-02T02:57:52.681Z,2.87
2022-11-02T03:00:19.368Z,3.40
2022-11-02T03:03:00.719Z,2.93
2022-11-02T03:05:37.219Z,2.80
2022-11-02T03:08:15.271Z,2.80
2022-11-02T03:10:48.170Z,2.57
2022-11-02T03:13:17.811Z,3.03
2022-11-02T03:15:59.647Z,3.17
2022-11-02T03:18:38.561Z,3.37
2022-11-02T03:21:18.041Z,3.03
2022-11-02T03:23:54.861Z,2.97
2022-11-02T03:26:44.841Z,3.10
2022-11-02T03:29:21.421Z,3.13
2022-11-02T03:32:00.339Z,2.93
2022-11-02T03:34:48.014Z,2.40
2022-11-02T03:37:29.523Z,2.70
2022-11-02T03:40:18.010Z,3.00
2022-11-02T03:42:46.404Z,2.90
2022-11-02T03:45:18.583Z,2.80
2022-11-02T03:47:50.169Z,2.47
2022-11-02T03:50:21.463Z,3.00
2022-11-02T03:52:57.003Z,2.67
2022-11-02T03:55:35.094Z,3.40
2022-11-02T03:58:02.370Z,3.87
2022-11-02T04:00:34.738Z,3.30
2022-11-02T04:03:08.311Z,3.37
2022-11-02T04:05:40.373Z,3.20
2022-11-02T04:08:21.214Z,3.00
2022-11-02T04:11:10.764Z,3.30
2022-11-02T04:13:57.258Z,3.57
2022-11-02T04:16:28.304Z,3.63
2022-11-02T04:19:14.701Z,3.70
2022-11-02T04:22:02.777Z,3.40
2022-11-02T04:24:49.439Z,2.83
2022-11-02T04:27:20.594Z,2.83
2022-11-02T04:29:48.912Z,3.07
2022-11-02T04:32:35.989Z,3.13
2022-11-02T04:35:05.127Z,2.87
2022-11-02T04:37:57.734Z,3.27
2022-11-02T04:40:24.834Z,2.93
2022-11-02T04:42:52.649Z,3.27
2022-11-02T04:45:19.498Z,3.13
2022-11-02T04:47:47.694Z,3.47
2022-11-02T04:50:14.388Z,2.90
2022-11-02T04:52:42.067Z,3.63
2022-11-02T04:55:09.187Z,3.13
2022-11-02T04:57:36.639Z,2.73
2022-11-02T05:00:05.033Z,3.20
2022-11-02T05:02:32.496Z,2.67
2022-11-02T05:04:59.156Z,3.00
2022-11-02T05:07:26.185Z,3.40
2022-11-02T05:09:52.742Z,2.93
2022-11-02T05:12:19.376Z,3.67
2022-11-02T05:14:46.937Z,3.07
2022-11-02T05:17:16.155Z,3.17
2022-11-02T05:19:43.171Z,3.43
2022-11-02T05:22:10.571Z,3.43
2022-11-02T05:24:37.940Z,2.93
2022-11-02T05:27:06.278Z,4.37
2022-11-02T05:29:35.905Z,3.70
2022-11-02T05:32:02.594Z,3.30
2022-11-02T05:34:29.243Z,3.17
2022-11-02T05:36:55.910Z,3.60
2022-11-02T05:39:22.547Z,3.30
2022-11-02T05:41:50.035Z,3.53
2022-11-02T05:44:16.959Z,3.13
2022-11-02T05:46:44.559Z,3.33
2022-11-02T05:49:11.131Z,3.20
2022-11-02T05:51:37.705Z,3.40
2022-11-02T05:54:04.475Z,3.40
2022-11-02T05:56:31.052Z,3.30
2022-11-02T05:58:57.667Z,3.67
2022-11-02T06:01:24.314Z,3.37
2022-11-02T06:03:53.790Z,3.03
2022-11-02T06:06:21.546Z,3.40
2022-11-02T06:08:48.199Z,3.70
2022-11-02T06:11:15.618Z,2.83
2022-11-02T06:13:42.477Z,3.20
2022-11-02T06:16:11.163Z,3.30
2022-11-02T06:18:38.876Z,2.67
2022-11-02T06:21:05.861Z,3.07
2022-11-02T06:23:32.889Z,3.00
2022-11-02T06:26:00.213Z,3.07
2022-11-02T06:28:27.756Z,3.20
2022-11-02T06:30:55.266Z,3.77
2022-11-02T06:33:22.396Z,3.57
2022-11-02T06:35:51.867Z,3.27
2022-11-02T06:38:19.227Z,3.93
2022-11-02T06:41:00.141Z,3.83
2022-11-02T06:43:26.737Z,3.60
2022-11-02T06:45:58.050Z,3.33
2022-11-02T06:48:28.696Z,3.83
2022-11-02T06:50:59.923Z,3.33
2022-11-02T06:53:26.568Z,3.23
2022-11-02T06:55:54.753Z,3.30
2022-11-02T06:58:22.861Z,3.03
2022-11-02T07:00:49.958Z,3.27
2022-11-02T07:03:16.848Z,3.60
2022-11-02T07:05:49.225Z,3.30
2022-11-02T07:08:15.801Z,3.00
2022-11-02T07:10:42.387Z,3.60
2022-11-02T07:13:09.008Z,3.00
2022-11-02T07:15:35.581Z,3.77
2022-11-02T07:18:02.193Z,3.40
2022-11-02T07:20:30.271Z,3.30
2022-11-02T07:22:59.321Z,2.97
2022-11-02T07:25:27.381Z,3.70
2022-11-02T07:27:54.872Z,3.50
2022-11-02T07:30:21.969Z,2.93
2022-11-02T07:32:48.735Z,3.07
2022-11-02T07:35:17.420Z,3.10
2022-11-02T07:37:44.511Z,3.53
2022-11-02T07:40:12.499Z,3.37
2022-11-02T07:42:48.670Z,3.40
2022-11-02T07:45:18.464Z,3.30
2022-11-02T07:47:45.779Z,2.87
2022-11-02T07:50:14.247Z,2.87
2022-11-02T07:52:45.306Z,2.97
2022-11-02T07:55:13.231Z,2.87
2022-11-02T07:57:39.814Z,3.27
2022-11-02T08:00:07.155Z,3.17
2022-11-02T08:02:38.843Z,3.50
2022-11-02T08:05:06.099Z,3.20
2022-11-02T08:07:32.687Z,3.10
2022-11-02T08:09:59.341Z,3.40
2022-11-02T08:12:26.339Z,3.67
2022-11-02T08:14:52.947Z,3.50
2022-11-02T08:17:19.575Z,3.17
2022-11-02T08:19:46.141Z,3.37
2022-11-02T08:22:12.715Z,3.20
2022-11-02T08:24:39.422Z,3.07
2022-11-02T08:27:06.403Z,3.00
2022-11-02T08:29:33.058Z,3.27
2022-11-02T08:31:59.614Z,3.60
2022-11-02T08:34:26.181Z,3.23
2022-11-02T08:36:52.737Z,3.17
2022-11-02T08:39:19.363Z,4.43
2022-11-02T08:41:46.076Z,3.13
2022-11-02T08:44:12.770Z,3.17
2022-11-02T08:46:39.323Z,3.00
2022-11-02T08:49:05.929Z,3.33
2022-11-02T08:51:32.494Z,3.60
2022-11-02T08:53:59.252Z,3.53
2022-11-02T08:56:25.802Z,3.20
2022-11-02T08:58:52.378Z,3.13
2022-11-02T09:01:19.047Z,3.20
2022-11-02T09:03:45.739Z,3.20
2022-11-02T09:06:12.302Z,3.10
2022-11-02T09:08:38.937Z,3.00
2022-11-02T09:11:05.677Z,3.53
2022-11-02T09:13:32.570Z,3.10
2022-11-02T09:16:00.274Z,3.13
2022-11-02T09:18:26.979Z,3.63
2022-11-02T09:20:53.864Z,3.07
2022-11-02T09:23:21.398Z,3.20
2022-11-02T09:25:48.931Z,2.80
2022-11-02T09:28:15.907Z,2.97
2022-11-02T09:30:43.087Z,2.97
2022-11-02T09:33:10.575Z,3.03
2022-11-02T09:35:48.215Z,2.67
2022-11-02T09:38:16.276Z,2.83
2022-11-02T09:40:50.522Z,2.47
2022-11-02T09:43:46.295Z,2.70
2022-11-02T09:46:22.674Z,2.73
2022-11-02T09:48:58.132Z,2.83
2022-11-02T09:51:29.470Z,3.53
2022-11-02T09:54:09.420Z,2.90
2022-11-02T09:56:41.345Z,3.00
2022-11-02T09:59:18.853Z,3.00
2022-11-02T10:02:00.942Z,3.00
2022-11-02T10:04:48.957Z,2.60
2022-11-02T10:07:51.273Z,2.30
2022-11-02T10:10:52.983Z,2.50
2022-11-02T10:14:00.940Z,2.60
2022-11-02T10:16:53.399Z,2.47
2022-11-02T10:19:24.991Z,2.70
2022-11-02T10:21:58.223Z,2.30
2022-11-02T10:24:37.120Z,3.07
2022-11-02T10:27:14.092Z,2.87
2022-11-02T10:30:04.122Z,3.57
2022-11-02T10:32:32.432Z,3.00
2022-11-02T10:35:17.958Z,2.80
2022-11-02T10:38:13.512Z,2.70
2022-11-02T10:40:55.816Z,2.63
2022-11-02T10:43:39.909Z,2.57
2022-11-02T10:46:12.383Z,3.07
2022-11-02T10:49:12.951Z,2.73
2022-11-02T10:51:39.670Z,2.70
2022-11-02T10:54:17.873Z,3.43
2022-11-02T10:56:50.191Z,3.20
2022-11-02T10:59:19.065Z,2.90
2022-11-02T11:01:56.034Z,2.87
2022-11-02T11:04:30.855Z,2.50
2022-11-02T11:07:03.915Z,3.00
2022-11-02T11:09:48.235Z,2.93
2022-11-02T11:12:22.341Z,2.60
2022-11-02T11:20:31.263Z,2.83
2022-11-02T11:23:16.896Z,3.07
2022-11-02T11:25:52.882Z,2.30
2022-11-02T11:28:25.969Z,2.20
2022-11-02T11:31:11.822Z,2.80
2022-11-02T11:33:45.237Z,2.60
2022-11-02T11:36:22.276Z,2.53
2022-11-02T11:38:50.732Z,2.47
2022-11-02T11:41:17.892Z,3.00
2022-11-02T11:43:46.830Z,2.33
2022-11-02T11:46:14.426Z,2.47
2022-11-02T11:48:46.109Z,2.77
2022-11-02T11:51:32.017Z,2.37
2022-11-02T11:54:28.098Z,2.60
2022-11-02T11:57:22.292Z,2.40
2022-11-02T11:59:52.712Z,1.97
2022-11-02T12:02:37.986Z,2.37
2022-11-02T12:05:07.847Z,2.67
2022-11-02T12:08:01.572Z,2.17
2022-11-02T12:10:42.149Z,2.47
2022-11-02T12:13:42.064Z,2.00
2022-11-02T12:16:17.692Z,2.03
2022-11-02T12:19:11.950Z,2.10
2022-11-02T12:21:59.198Z,2.27
2022-11-02T12:24:49.164Z,2.20
2022-11-02T12:27:33.249Z,2.47
2022-11-02T12:30:17.008Z,2.10
2022-11-02T12:33:17.708Z,2.47
2022-11-02T12:36:06.268Z,2.60
2022-11-02T12:38:49.426Z,2.33
2022-11-02T12:41:44.122Z,2.13
2022-11-02T12:44:17.524Z,2.40
2022-11-02T12:46:51.482Z,2.57
2022-11-02T12:49:41.554Z,3.73
2022-11-02T12:52:29.596Z,3.17
2022-11-02T12:54:59.237Z,3.50
2022-11-02T12:57:30.397Z,2.53
2022-11-02T13:00:02.926Z,2.53
2022-11-02T13:02:53.947Z,2.67
2022-11-02T13:05:28.386Z,2.90
2022-11-02T13:08:19.614Z,2.70
2022-11-02T13:10:59.939Z,2.73
2022-11-02T13:13:59.543Z,2.67
2022-11-02T13:16:41.151Z,2.43
2022-11-02T13:19:22.591Z,2.67
2022-11-02T13:21:54.914Z,2.63
2022-11-02T13:24:30.733Z,3.40
2022-11-02T13:27:14.375Z,2.47
2022-11-02T13:29:50.699Z,2.40
2022-11-02T15:34:06.195Z,2.80
2022-11-02T15:36:37.897Z,3.07
2022-11-02T15:39:10.410Z,2.80
2022-11-02T15:41:48.218Z,4.17
2022-11-02T15:44:21.580Z,3.53
2022-11-02T15:46:59.386Z,2.97
2022-11-02T15:49:55.561Z,3.47
2022-11-02T15:53:21.264Z,2.90
2022-11-02T15:55:40.930Z,3.47
2022-11-02T15:58:37.800Z,3.40
2022-11-02T16:01:05.699Z,2.90
2022-11-02T16:03:33.351Z,3.83
2022-11-02T16:06:03.190Z,3.80
2022-11-02T16:08:39.076Z,3.30
2022-11-02T16:11:17.425Z,3.53
2022-11-02T16:14:03.559Z,3.50
2022-11-02T16:16:35.853Z,3.63
2022-11-02T16:19:02.971Z,3.93
2022-11-02T16:21:30.387Z,3.70
2022-11-02T16:23:59.245Z,4.13
2022-11-02T16:26:29.087Z,3.23
2022-11-02T16:29:01.863Z,3.67
2022-11-02T16:31:32.304Z,3.37
2022-11-02T16:34:01.573Z,3.63
2022-11-02T16:36:31.144Z,3.17
2022-11-02T16:38:58.788Z,4.00
2022-11-02T16:41:33.884Z,3.50
2022-11-02T16:44:18.621Z,3.70
2022-11-02T16:47:08.035Z,3.00
2022-11-02T16:49:55.556Z,3.67
2022-11-02T16:52:27.410Z,3.30
2022-11-02T16:54:53.998Z,3.30
2022-11-02T16:57:27.544Z,3.40
2022-11-02T17:00:04.915Z,3.57
2022-11-02T17:02:39.861Z,3.73
2022-11-02T17:05:16.252Z,3.33
2022-11-02T17:07:47.024Z,3.53
2022-11-02T17:10:25.513Z,3.30
2022-11-02T17:12:52.852Z,3.50
2022-11-02T17:15:22.379Z,3.47
2022-11-02T17:17:49.826Z,4.00
2022-11-02T17:20:22.695Z,3.27
2022-11-02T17:22:57.847Z,3.43
2022-11-02T17:25:28.618Z,3.33
2022-11-02T17:28:00.436Z,2.80
2022-11-02T17:30:30.335Z,3.30
2022-11-02T17:32:58.134Z,2.83
2022-11-02T17:35:27.445Z,3.40
2022-11-02T17:37:55.934Z,3.90
2022-11-02T17:40:22.636Z,3.60
2022-11-02T17:42:59.030Z,3.43
2022-11-02T17:45:31.064Z,3.07
2022-11-02T17:47:59.019Z,3.03
2022-11-02T17:50:27.805Z,3.50
2022-11-02T17:52:55.723Z,3.23
2022-11-02T17:55:29.354Z,3.40
2022-11-02T17:57:56.933Z,3.33
2022-11-02T18:00:24.443Z,4.83
2022-11-02T18:02:53.068Z,3.97
2022-11-02T18:05:36.042Z,3.90
2022-11-02T18:08:05.547Z,4.13
2022-11-02T18:10:37.217Z,3.40
2022-11-02T18:13:04.421Z,3.33
2022-11-02T18:15:32.889Z,3.33
2022-11-02T18:18:00.104Z,3.23
2022-11-02T18:20:27.812Z,3.20
2022-11-02T18:22:55.821Z,3.60
2022-11-02T18:25:23.129Z,3.73
2022-11-02T18:27:49.757Z,3.43
2022-11-02T18:30:17.762Z,3.50
2022-11-02T18:32:45.866Z,2.90
2022-11-02T18:35:19.276Z,3.60
2022-11-02T18:37:49.043Z,3.80
2022-11-02T18:40:18.567Z,3.63
2022-11-02T18:42:45.495Z,3.83
2022-11-02T18:45:14.182Z,3.63
2022-11-02T18:47:41.948Z,3.93
2022-11-02T18:50:10.732Z,3.90
2022-11-02T18:52:37.476Z,3.83
2022-11-02T18:55:05.228Z,3.87
2022-11-02T18:57:32.832Z,4.00
2022-11-02T19:00:02.380Z,3.57
2022-11-02T19:02:29.554Z,4.70
2022-11-02T19:08:25.248Z,3.57
2022-11-02T19:10:51.908Z,3.93
2022-11-02T19:13:18.544Z,3.63
2022-11-02T19:15:45.159Z,4.07
2022-11-02T19:18:11.816Z,3.43
2022-11-02T19:20:38.612Z,3.07
2022-11-02T19:23:05.754Z,3.90
2022-11-02T19:25:32.487Z,3.47
2022-11-02T19:27:59.367Z,4.03
2022-11-02T19:30:25.949Z,3.63
2022-11-02T19:32:52.657Z,4.10
2022-11-02T19:35:19.272Z,3.60
2022-11-02T19:37:45.907Z,4.10
2022-11-02T19:40:12.691Z,5.03
2022-11-02T19:42:39.720Z,4.67
2022-11-02T19:45:06.675Z,4.20
2022-11-02T19:47:34.015Z,6.10
2022-11-02T19:50:00.591Z,4.30
2022-11-02T19:52:27.234Z,3.87
2022-11-02T19:54:53.810Z,5.37
2022-11-02T19:57:20.418Z,3.83
2022-11-02T19:59:47.123Z,3.77
2022-11-02T20:02:14.208Z,3.93
2022-11-02T20:04:42.501Z,4.37
2022-11-02T20:07:09.787Z,4.07
2022-11-02T20:09:36.596Z,3.80
2022-11-02T20:12:04.745Z,3.87
2022-11-02T20:14:31.319Z,4.53
2022-11-02T20:17:10.690Z,4.20
2022-11-02T20:19:44.756Z,4.43
2022-11-02T20:22:12.903Z,4.43
2022-11-02T20:24:39.546Z,3.60
2022-11-02T20:27:07.902Z,4.43
2022-11-02T20:29:34.629Z,3.80
2022-11-02T20:32:01.293Z,5.10
2022-11-02T20:34:27.981Z,4.37
2022-11-02T20:36:54.597Z,4.37
2022-11-02T20:39:21.407Z,4.10
2022-11-02T20:41:52.464Z,5.33
2022-11-02T20:44:20.710Z,4.67
2022-11-02T20:46:52.786Z,3.80
2022-11-02T20:49:21.858Z,5.70
2022-11-02T20:51:56.542Z,3.67
2022-11-02T20:54:23.795Z,3.87
2022-11-02T20:56:50.774Z,4.40
2022-11-02T20:59:17.938Z,4.13
2022-11-02T21:01:44.957Z,3.83
2022-11-02T21:04:15.508Z,3.80
2022-11-02T21:06:46.221Z,3.80
2022-11-02T21:09:12.944Z,4.13
2022-11-02T21:11:58.337Z,3.43
2022-11-02T21:14:27.008Z,3.90
2022-11-02T21:16:56.457Z,3.20
2022-11-02T21:19:23.196Z,3.17
2022-11-02T21:21:51.817Z,3.37
2022-11-02T21:24:21.741Z,4.00
2022-11-02T21:26:48.331Z,3.50
2022-11-02T21:29:14.908Z,3.90
2022-11-02T21:31:41.515Z,3.63
2022-11-02T21:34:08.139Z,4.00
2022-11-02T21:36:34.762Z,3.80
2022-11-02T21:39:01.451Z,3.50
2022-11-02T21:41:28.790Z,4.37
2022-11-02T21:43:55.824Z,3.90
2022-11-02T21:46:25.759Z,3.23
2022-11-02T21:48:52.786Z,3.77
2022-11-02T21:51:21.191Z,3.73
2022-11-02T21:53:54.417Z,5.37
2022-11-02T21:56:25.555Z,4.10
2022-11-02T21:58:53.681Z,3.77
2022-11-02T22:01:44.237Z,3.97
2022-11-02T22:04:13.691Z,3.57
2022-11-02T22:06:42.464Z,3.47
2022-11-02T22:09:11.382Z,3.20
2022-11-02T22:11:38.356Z,3.67
2022-11-02T22:14:20.208Z,3.60
2022-11-02T22:16:46.860Z,3.60
2022-11-02T22:19:15.220Z,3.33
2022-11-02T22:21:44.547Z,3.47
2022-11-02T22:24:12.124Z,3.30
2022-11-02T22:26:39.736Z,3.83
2022-11-02T22:29:06.865Z,3.20
2022-11-02T22:31:39.250Z,3.23
2022-11-02T22:34:08.153Z,6.03
2022-11-02T22:36:35.278Z,3.80
2022-11-02T22:39:04.149Z,4.27
2022-11-02T22:41:38.523Z,3.40
2022-11-02T22:44:16.999Z,3.30
2022-11-02T22:46:45.522Z,3.83
2022-11-02T22:49:13.608Z,3.40
2022-11-02T22:51:42.289Z,3.17
2022-11-02T22:54:11.714Z,3.53
2022-11-02T22:56:38.333Z,3.47
2022-11-02T22:59:05.874Z,3.03
2022-11-02T23:01:33.933Z,3.33
2022-11-02T23:04:01.239Z,3.27
2022-11-02T23:06:28.787Z,3.60
2022-11-02T23:08:59.970Z,3.17
2022-11-02T23:11:33.033Z,3.60
2022-11-02T23:14:02.198Z,3.63
2022-11-02T23:16:49.032Z,3.23
2022-11-02T23:19:29.631Z,3.23
2022-11-02T23:22:16.809Z,3.50
2022-11-02T23:25:05.798Z,3.20
2022-11-02T23:27:34.266Z,3.00
2022-11-02T23:30:19.578Z,3.13
2022-11-02T23:32:46.202Z,3.20
2022-11-02T23:35:31.294Z,3.60
2022-11-02T23:38:05.405Z,3.17
2022-11-02T23:40:32.694Z,3.40
2022-11-02T23:42:59.359Z,2.70
2022-11-02T23:45:25.958Z,3.83
2022-11-02T23:48:00.547Z,4.03
2022-11-02T23:50:49.012Z,3.57
2022-11-02T23:53:37.087Z,3.23
2022-11-02T23:56:23.659Z,3.20
2022-11-02T23:59:06.489Z,3.30
